Time;durP1;ratioP1;P1;durP2;ratioP2;P2;SDS_P1;SDS_P2;PMS_P1;PMS_P2;Temp;Humidity;BMP_temperature;BMP_pressure;BME280_temperature;BME280_humidity;BME280_pressure;Samples;Min_cycle;Max_cycle;Signal;HPM_P1;HPM_P2
2023/03/30 00:02:21;;;;;;;33.47;20.30;;;;;;;8.93;100.00;100614.63;7397964;19;20436;-36
2023/03/30 00:04:54;;;;;;;34.60;20.70;;;;;;;9.02;100.00;100607.31;7391395;19;20442;-36
2023/03/30 00:07:24;;;;;;;46.83;22.63;;;;;;;8.96;100.00;100607.00;7395918;19;20448;-39
2023/03/30 00:09:53;;;;;;;37.97;21.20;;;;;;;8.98;100.00;100589.94;7392963;19;20431;-37
2023/03/30 00:12:23;;;;;;;35.40;20.27;;;;;;;9.05;100.00;100583.41;7397204;19;20842;-37
2023/03/30 00:14:52;;;;;;;34.03;19.83;;;;;;;9.05;100.00;100580.81;7387647;19;20450;-37
2023/03/30 00:17:22;;;;;;;44.87;22.43;;;;;;;8.99;100.00;100580.53;7394180;19;20403;-37
2023/03/30 00:19:54;;;;;;;32.93;20.10;;;;;;;8.83;100.00;100578.97;7394755;19;20482;-38
2023/03/30 00:22:24;;;;;;;34.83;20.40;;;;;;;8.96;100.00;100571.00;7395666;19;20406;-35
2023/03/30 00:24:54;;;;;;;36.40;19.33;;;;;;;8.93;100.00;100563.16;7392060;19;20482;-36
2023/03/30 00:27:23;;;;;;;47.30;24.70;;;;;;;8.96;100.00;100568.41;7395144;19;20435;-37
2023/03/30 00:29:53;;;;;;;32.93;18.93;;;;;;;8.96;100.00;100559.84;7394423;19;20791;-36
2023/03/30 00:32:23;;;;;;;71.07;26.90;;;;;;;8.95;100.00;100552.91;7395330;19;20772;-37
2023/03/30 00:34:55;;;;;;;31.10;18.97;;;;;;;8.93;100.00;100547.72;7391295;19;20441;-36
2023/03/30 00:37:26;;;;;;;36.67;21.20;;;;;;;9.05;100.00;100549.94;7394821;19;20444;-38
2023/03/30 00:39:55;;;;;;;34.83;19.20;;;;;;;8.87;100.00;100538.00;7393435;19;20447;-37
2023/03/30 00:42:25;;;;;;;29.23;18.43;;;;;;;8.88;100.00;100531.19;7394877;19;20748;-37
2023/03/30 00:45:10;;;;;;;37.37;19.90;;;;;;;8.82;100.00;100523.19;7392521;19;20447;-37
2023/03/30 00:47:41;;;;;;;33.60;19.77;;;;;;;8.94;100.00;100515.13;7394624;19;20439;-36
2023/03/30 00:50:15;;;;;;;31.33;18.47;;;;;;;8.93;100.00;100514.25;7392295;19;20442;-37
2023/03/30 00:52:46;;;;;;;71.53;27.30;;;;;;;8.89;100.00;100494.34;7395151;19;20411;-37
2023/03/30 00:55:16;;;;;;;34.10;19.40;;;;;;;8.87;100.00;100483.13;7391769;19;20450;-37
2023/03/30 00:57:45;;;;;;;43.53;22.83;;;;;;;8.84;100.00;100471.00;7394382;19;20439;-38
2023/03/30 01:00:15;;;;;;;37.73;20.50;;;;;;;8.86;100.00;100455.59;7392169;19;20447;-37
2023/03/30 01:02:48;;;;;;;32.97;20.00;;;;;;;8.82;100.00;100452.00;7395147;19;20765;-38
2023/03/30 01:05:22;;;;;;;31.30;18.10;;;;;;;8.72;100.00;100439.56;7389132;19;20447;-38
2023/03/30 01:07:52;;;;;;;32.73;19.60;;;;;;;8.87;100.00;100427.38;7394385;19;20821;-37
2023/03/30 01:10:22;;;;;;;28.07;17.70;;;;;;;8.91;100.00;100410.38;7388991;19;20779;-37
2023/03/30 01:12:52;;;;;;;32.37;17.00;;;;;;;8.79;100.00;100418.44;7394605;19;20440;-38
2023/03/30 01:15:24;;;;;;;32.23;18.77;;;;;;;8.78;100.00;100406.41;7392146;19;20452;-35
2023/03/30 01:18:22;;;;;;;31.30;19.23;;;;;;;8.72;100.00;100399.28;7392934;19;20447;-37
2023/03/30 01:21:14;;;;;;;30.57;17.30;;;;;;;8.78;100.00;100381.53;7392371;19;20814;-38
2023/03/30 01:24:17;;;;;;;30.60;18.60;;;;;;;8.75;100.00;100380.53;7391624;19;20391;-36
2023/03/30 01:26:54;;;;;;;30.17;17.67;;;;;;;8.53;100.00;100377.03;7390607;19;20430;-36
2023/03/30 01:29:43;;;;;;;27.63;16.40;;;;;;;8.66;100.00;100360.44;7390119;19;20410;-37
2023/03/30 01:32:54;;;;;;;34.87;17.73;;;;;;;8.66;100.00;100357.00;7394255;19;20404;-37
2023/03/30 01:35:42;;;;;;;31.70;17.43;;;;;;;8.63;100.00;100358.59;7389709;19;20427;-37
2023/03/30 01:38:51;;;;;;;26.33;16.10;;;;;;;8.53;100.00;100338.47;7393745;19;20457;-37
2023/03/30 01:41:31;;;;;;;30.93;16.03;;;;;;;8.54;100.00;100323.91;7394362;19;20475;-39
2023/03/30 01:44:04;;;;;;;29.03;17.03;;;;;;;8.67;100.00;100315.91;7389606;19;20407;-39
2023/03/30 01:46:39;;;;;;;28.80;16.60;;;;;;;8.77;100.00;100306.91;7393187;19;20407;-37
2023/03/30 01:49:14;;;;;;;37.60;18.17;;;;;;;8.59;100.00;100307.88;7390787;19;20414;-38
2023/03/30 01:51:47;;;;;;;25.83;16.10;;;;;;;8.61;100.00;100292.53;7395807;19;20395;-38
2023/03/30 01:54:19;;;;;;;32.03;17.57;;;;;;;8.47;100.00;100287.59;7386517;19;20407;-39
2023/03/30 01:56:54;;;;;;;29.80;16.80;;;;;;;8.44;100.00;100290.06;7390969;19;20399;-36
2023/03/30 01:59:27;;;;;;;33.20;17.00;;;;;;;8.42;100.00;100277.94;7388474;19;20438;-41
2023/03/30 02:02:01;;;;;;;27.90;17.80;;;;;;;8.62;100.00;100255.69;7393732;19;20414;-40
2023/03/30 02:04:33;;;;;;;25.97;15.53;;;;;;;8.60;100.00;100254.72;7388372;19;20798;-42
2023/03/30 02:07:08;;;;;;;31.90;17.60;;;;;;;8.60;100.00;100229.00;7391559;19;20970;-39
2023/03/30 02:09:39;;;;;;;35.47;17.83;;;;;;;8.68;100.00;100214.81;7388735;19;20419;-39
2023/03/30 02:12:13;;;;;;;28.13;16.90;;;;;;;8.68;100.00;100175.34;7391622;19;20943;-38
2023/03/30 02:14:43;;;;;;;31.97;17.77;;;;;;;8.55;100.00;100153.41;7390989;19;20450;-37
2023/03/30 02:17:17;;;;;;;33.50;17.43;;;;;;;8.52;100.00;100141.31;7391811;19;20436;-39
2023/03/30 02:19:47;;;;;;;44.00;20.00;;;;;;;8.70;100.00;100145.41;7388587;19;20439;-38
2023/03/30 02:22:18;;;;;;;40.07;21.40;;;;;;;8.66;100.00;100121.25;7398136;19;20427;-37
2023/03/30 02:24:50;;;;;;;34.10;19.20;;;;;;;8.54;100.00;100100.19;7396874;19;21159;-40
2023/03/30 02:27:23;;;;;;;42.60;22.10;;;;;;;8.47;100.00;100101.63;7398009;19;20851;-36
2023/03/30 02:29:55;;;;;;;39.30;19.50;;;;;;;8.54;100.00;100088.22;7397131;19;20439;-37
2023/03/30 02:32:27;;;;;;;35.37;19.90;;;;;;;8.54;100.00;100071.91;7398498;19;20412;-37
2023/03/30 02:35:10;;;;;;;32.63;20.27;;;;;;;8.59;100.00;100070.41;7395177;19;20909;-36
2023/03/30 02:37:48;;;;;;;42.00;20.70;;;;;;;8.51;100.00;100057.22;7398513;19;20439;-38
2023/03/30 02:40:28;;;;;;;73.20;26.07;;;;;;;8.50;100.00;100046.06;7395896;19;20451;-38
2023/03/30 02:43:14;;;;;;;43.73;20.87;;;;;;;8.42;100.00;100046.59;7397788;19;20955;-39
2023/03/30 02:45:54;;;;;;;36.03;18.90;;;;;;;8.44;100.00;100030.41;7393763;19;20430;-39
2023/03/30 02:48:32;;;;;;;45.67;21.87;;;;;;;8.41;100.00;100014.84;7397816;19;20439;-37
2023/03/30 02:51:10;;;;;;;53.90;22.10;;;;;;;8.49;100.00;100015.16;7397761;19;20533;-39
2023/03/30 02:53:44;;;;;;;44.97;22.67;;;;;;;8.43;100.00;100017.47;7395435;19;20411;-40
2023/03/30 02:56:18;;;;;;;35.67;20.40;;;;;;;8.41;100.00;99990.84;7396583;19;20426;-37
2023/03/30 02:58:54;;;;;;;44.83;21.90;;;;;;;8.35;100.00;99976.94;7392102;19;20410;-43
2023/03/30 03:01:30;;;;;;;38.60;18.70;;;;;;;8.44;100.00;99968.72;7397512;19;20781;-39
2023/03/30 03:04:02;;;;;;;41.83;20.40;;;;;;;8.45;100.00;99965.31;7393137;19;20419;-41
2023/03/30 03:06:32;;;;;;;44.60;21.50;;;;;;;8.54;100.00;99946.81;7397927;19;20428;-37
2023/03/30 03:09:02;;;;;;;35.77;19.13;;;;;;;8.40;100.00;99940.25;7391592;19;20446;-37
2023/03/30 03:11:32;;;;;;;37.07;20.33;;;;;;;8.49;100.00;99932.88;7397897;19;20407;-37
2023/03/30 03:14:04;;;;;;;34.73;19.43;;;;;;;8.49;100.00;99926.06;7393841;19;20448;-37
2023/03/30 03:16:34;;;;;;;39.70;21.83;;;;;;;8.49;100.00;99925.16;7397449;19;20951;-36
2023/03/30 03:19:04;;;;;;;35.07;19.40;;;;;;;8.42;100.00;99923.19;7392901;19;20434;-36
2023/03/30 03:21:34;;;;;;;40.73;21.00;;;;;;;8.45;100.00;99913.00;7397790;19;20400;-37
2023/03/30 03:24:04;;;;;;;41.00;23.00;;;;;;;8.59;100.00;99909.28;7395288;19;20456;-39
2023/03/30 03:26:33;;;;;;;48.10;22.67;;;;;;;8.59;100.00;99890.41;7396814;19;20419;-37
2023/03/30 03:29:05;;;;;;;40.50;22.20;;;;;;;8.59;100.00;99890.41;7392614;19;20432;-39
2023/03/30 03:31:35;;;;;;;57.23;25.13;;;;;;;8.67;100.00;99880.41;7396765;19;20407;-40
2023/03/30 03:34:05;;;;;;;37.87;20.17;;;;;;;8.62;100.00;99875.97;7390160;19;20947;-38
2023/03/30 03:36:35;;;;;;;41.67;20.90;;;;;;;8.56;100.00;99869.75;7396294;19;20404;-37
2023/03/30 03:39:05;;;;;;;36.37;19.47;;;;;;;8.46;100.00;99874.50;7392666;19;20773;-37
2023/03/30 03:41:35;;;;;;;43.70;21.40;;;;;;;8.51;100.00;99875.59;7396903;19;20931;-36
2023/03/30 03:44:07;;;;;;;34.60;19.13;;;;;;;8.45;100.00;99875.34;7392688;19;21076;-36
2023/03/30 03:46:37;;;;;;;66.00;26.77;;;;;;;8.50;100.00;99881.53;7396655;19;20627;-39
2023/03/30 03:49:06;;;;;;;34.80;19.00;;;;;;;8.38;100.00;99876.78;7391781;19;20436;-38
2023/03/30 03:51:36;;;;;;;36.40;20.63;;;;;;;8.82;100.00;99880.94;7399106;19;20412;-38
2023/03/30 03:54:05;;;;;;;43.60;24.83;;;;;;;8.88;100.00;99882.84;7393605;19;20431;-42
2023/03/30 03:56:35;;;;;;;60.80;34.37;;;;;;;8.85;100.00;99873.34;7395408;19;21017;-37
2023/03/30 03:59:07;;;;;;;65.77;32.00;;;;;;;8.96;100.00;99865.13;7391857;19;20402;-36
2023/03/30 04:01:37;;;;;;;46.53;25.13;;;;;;;8.83;100.00;99874.09;7396250;19;20407;-40
2023/03/30 04:04:06;;;;;;;32.80;18.80;;;;;;;8.83;100.00;99869.84;7392346;19;20428;-37
2023/03/30 04:06:36;;;;;;;41.83;21.00;;;;;;;8.66;100.00;99876.09;7395783;19;20408;-37
2023/03/30 04:09:06;;;;;;;34.73;19.03;;;;;;;8.54;100.00;99885.09;7388377;19;20967;-37
2023/03/30 04:11:35;;;;;;;34.10;18.47;;;;;;;8.52;100.00;99884.19;7394619;19;20760;-36
2023/03/30 04:14:08;;;;;;;32.83;17.77;;;;;;;8.45;100.00;99872.75;7392559;19;20671;-37
2023/03/30 04:16:37;;;;;;;33.17;19.57;;;;;;;8.40;100.00;99874.28;7394603;19;20407;-43
2023/03/30 04:19:07;;;;;;;35.00;17.30;;;;;;;8.29;100.00;99866.19;7393141;19;20459;-38
2023/03/30 04:21:39;;;;;;;40.50;20.97;;;;;;;8.38;100.00;99861.38;7395579;19;20403;-39
2023/03/30 04:24:11;;;;;;;49.50;22.27;;;;;;;8.36;100.00;99863.03;7391414;19;20427;-39
2023/03/30 04:26:40;;;;;;;31.27;18.57;;;;;;;8.28;100.00;99860.97;7394404;19;20455;-39
2023/03/30 04:29:15;;;;;;;38.90;18.43;;;;;;;8.23;100.00;99856.56;7389750;19;20419;-39
2023/03/30 04:31:45;;;;;;;35.47;18.37;;;;;;;8.29;100.00;99843.06;7394997;19;20494;-38
2023/03/30 04:34:20;;;;;;;34.57;20.13;;;;;;;8.41;100.00;99839.19;7387438;19;20435;-40
2023/03/30 04:36:50;;;;;;;31.73;19.00;;;;;;;8.28;100.00;99843.88;7392746;19;20470;-36
2023/03/30 04:39:19;;;;;;;31.23;17.33;;;;;;;8.18;100.00;99846.91;7389128;19;20421;-37
2023/03/30 04:41:51;;;;;;;32.50;18.90;;;;;;;8.30;100.00;99829.38;7392983;19;20400;-37
2023/03/30 04:44:23;;;;;;;35.00;17.37;;;;;;;8.34;100.00;99828.69;7388627;19;20407;-37
2023/03/30 04:46:52;;;;;;;33.67;17.03;;;;;;;8.40;100.00;99811.72;7392390;19;20793;-37
2023/03/30 04:49:22;;;;;;;35.60;19.70;;;;;;;8.44;100.00;99813.56;7389276;19;20415;-39
2023/03/30 04:51:51;;;;;;;34.13;17.10;;;;;;;8.40;100.00;99804.88;7393681;19;20436;-40
2023/03/30 04:54:21;;;;;;;32.83;19.90;;;;;;;8.18;100.00;99811.84;7390260;19;21018;-41
2023/03/30 04:56:51;;;;;;;33.07;18.43;;;;;;;8.28;100.00;99804.44;7394113;19;20426;-37
2023/03/30 04:59:24;;;;;;;28.57;16.80;;;;;;;8.17;100.00;99812.66;7389594;19;20701;-38
2023/03/30 05:01:53;;;;;;;28.77;17.57;;;;;;;8.18;100.00;99806.69;7392099;19;20419;-38
2023/03/30 05:04:23;;;;;;;29.13;17.03;;;;;;;8.26;100.00;99801.84;7388591;19;20973;-42
2023/03/30 05:06:52;;;;;;;33.63;17.80;;;;;;;8.23;100.00;99802.59;7391376;19;20951;-38
2023/03/30 05:09:23;;;;;;;32.50;18.27;;;;;;;8.29;100.00;99793.34;7381890;19;20435;-40
2023/03/30 05:11:52;;;;;;;32.03;17.53;;;;;;;8.18;100.00;99796.41;7392355;19;20414;-38
2023/03/30 05:14:25;;;;;;;33.60;16.40;;;;;;;8.13;100.00;99802.19;7389027;19;21070;-36
2023/03/30 05:16:54;;;;;;;32.10;17.80;;;;;;;8.13;100.00;99791.91;7391631;19;20849;-40
2023/03/30 05:19:24;;;;;;;34.03;16.87;;;;;;;8.09;100.00;99796.97;7389678;19;20419;-37
2023/03/30 05:21:54;;;;;;;30.93;17.30;;;;;;;8.13;100.00;99795.38;7392892;19;20428;-40
2023/03/30 05:24:23;;;;;;;28.27;16.70;;;;;;;8.21;100.00;99785.38;7390981;19;20427;-40
2023/03/30 05:26:53;;;;;;;27.27;16.73;;;;;;;8.26;100.00;99780.41;7392449;19;20479;-39
2023/03/30 05:29:25;;;;;;;31.63;17.90;;;;;;;8.27;100.00;99775.31;7389105;19;20436;-39
2023/03/30 05:31:54;;;;;;;28.03;16.60;;;;;;;8.34;100.00;99777.28;7392110;19;21153;-38
2023/03/30 05:34:24;;;;;;;30.00;17.60;;;;;;;8.22;100.00;99787.13;7389868;19;20419;-37
2023/03/30 05:36:54;;;;;;;30.60;16.23;;;;;;;8.15;100.00;99792.88;7391739;19;20431;-38
2023/03/30 05:39:24;;;;;;;28.87;17.00;;;;;;;8.24;100.00;99778.66;7389664;19;20438;-37
2023/03/30 05:41:53;;;;;;;26.53;15.83;;;;;;;8.22;100.00;99772.56;7392331;19;20443;-36
2023/03/30 05:44:26;;;;;;;34.50;15.93;;;;;;;8.19;100.00;99779.28;7389004;19;20431;-37
2023/03/30 05:46:55;;;;;;;29.63;14.70;;;;;;;8.31;100.00;99772.00;7391667;19;20414;-37
2023/03/30 05:49:25;;;;;;;29.00;14.70;;;;;;;8.27;100.00;99779.56;7388855;19;20410;-36
2023/03/30 05:51:55;;;;;;;26.20;14.90;;;;;;;8.36;100.00;99780.75;7391743;19;20412;-37
2023/03/30 05:54:25;;;;;;;32.83;16.10;;;;;;;8.41;100.00;99798.91;7388317;19;20412;-39
2023/03/30 05:56:54;;;;;;;27.10;14.73;;;;;;;8.31;100.00;99810.56;7394978;19;20980;-38
2023/03/30 05:59:27;;;;;;;25.43;14.40;;;;;;;8.23;100.00;99815.44;7398696;19;20438;-37
2023/03/30 06:01:57;;;;;;;21.33;13.73;;;;;;;8.32;100.00;99819.16;7397610;19;20407;-41
2023/03/30 06:04:27;;;;;;;19.37;12.77;;;;;;;8.37;100.00;99821.06;7397939;19;20411;-38
2023/03/30 06:06:57;;;;;;;29.17;14.13;;;;;;;8.37;100.00;99826.22;7397698;19;20411;-39
2023/03/30 06:09:27;;;;;;;23.47;10.83;;;;;;;8.48;100.00;99824.03;7397370;19;20455;-39
2023/03/30 06:11:57;;;;;;;34.20;12.27;;;;;;;8.40;100.00;99828.00;7398338;19;20412;-39
2023/03/30 06:14:29;;;;;;;30.00;15.50;;;;;;;8.41;100.00;99810.91;7396916;19;20439;-41
2023/03/30 06:16:59;;;;;;;21.50;12.97;;;;;;;8.50;100.00;99799.25;7397094;19;20408;-40
2023/03/30 06:19:29;;;;;;;23.20;14.13;;;;;;;8.59;100.00;99774.69;7397197;19;20966;-38
2023/03/30 06:21:58;;;;;;;27.90;13.43;;;;;;;8.53;100.00;99774.50;7397977;19;20760;-39
2023/03/30 06:24:28;;;;;;;20.80;12.53;;;;;;;8.65;100.00;99756.91;7397696;19;20451;-38
2023/03/30 06:26:57;;;;;;;23.60;13.70;;;;;;;8.60;100.00;99746.47;7398593;19;20403;-39
2023/03/30 06:29:30;;;;;;;21.50;12.33;;;;;;;8.69;100.00;99739.88;7397627;19;20438;-40
2023/03/30 06:32:00;;;;;;;21.93;12.60;;;;;;;8.81;100.00;99732.56;7399586;19;20408;-37
2023/03/30 06:34:30;;;;;;;23.20;12.67;;;;;;;8.89;100.00;99738.84;7396548;19;20467;-39
2023/03/30 06:37:00;;;;;;;20.90;12.60;;;;;;;8.94;100.00;99733.84;7397991;19;20432;-37
2023/03/30 06:39:29;;;;;;;52.53;26.90;;;;;;;9.17;100.00;99731.13;7397845;19;20427;-38
2023/03/30 06:41:59;;;;;;;21.37;12.37;;;;;;;9.18;100.00;99727.75;7398214;19;20774;-39
2023/03/30 06:44:33;;;;;;;22.67;12.40;;;;;;;9.29;100.00;99731.50;7397947;19;20990;-39
2023/03/30 06:47:04;;;;;;;23.67;13.40;;;;;;;9.30;100.00;99722.97;7397906;19;20416;-39
2023/03/30 06:49:33;;;;;;;38.10;20.03;;;;;;;9.31;100.00;99722.13;7395849;19;20479;-38
2023/03/30 06:52:03;;;;;;;37.10;20.30;;;;;;;9.35;100.00;99727.38;7397967;19;20411;-38
2023/03/30 06:54:36;;;;;;;44.27;21.00;;;;;;;9.40;100.00;99723.22;7396004;19;20434;-40
2023/03/30 06:57:06;;;;;;;18.87;11.67;;;;;;;9.23;100.00;99730.44;7397214;19;20415;-38
2023/03/30 06:59:39;;;;;;;23.03;11.30;;;;;;;9.18;100.00;99738.03;7396792;19;20443;-37
2023/03/30 07:02:08;;;;;;;24.67;12.73;;;;;;;9.41;100.00;99732.69;7397224;19;20408;-38
2023/03/30 07:04:38;;;;;;;24.93;14.23;;;;;;;9.42;100.00;99732.75;7396188;19;20467;-36
2023/03/30 07:07:08;;;;;;;25.73;11.53;;;;;;;9.49;100.00;99727.78;7396754;19;20403;-37
2023/03/30 07:09:37;;;;;;;25.33;14.40;;;;;;;9.58;100.00;99713.47;7396021;19;20447;-39
2023/03/30 07:12:07;;;;;;;19.93;11.07;;;;;;;9.57;100.00;99723.72;7397308;19;20426;-38
2023/03/30 07:14:39;;;;;;;24.63;11.97;;;;;;;9.58;100.00;99723.78;7396772;19;20826;-37
2023/03/30 07:17:09;;;;;;;16.97;10.53;;;;;;;9.64;100.00;99724.78;7397889;19;20444;-37
2023/03/30 07:19:38;;;;;;;18.73;10.13;;;;;;;9.70;100.00;99737.84;7393008;19;20940;-40
2023/03/30 07:22:08;;;;;;;20.47;10.17;;;;;;;9.76;100.00;99732.88;7396575;19;20396;-37
2023/03/30 07:24:38;;;;;;;16.83;8.73;;;;;;;9.78;100.00;99736.34;7395965;19;20492;-37
2023/03/30 07:27:07;;;;;;;16.03;8.53;;;;;;;9.85;100.00;99733.13;7396018;19;20435;-41
2023/03/30 07:29:39;;;;;;;15.07;8.00;;;;;;;9.85;100.00;99747.72;7395554;19;20985;-38
2023/03/30 07:32:09;;;;;;;10.53;5.73;;;;;;;9.84;100.00;99756.25;7396904;19;20780;-37
2023/03/30 07:34:38;;;;;;;14.77;6.37;;;;;;;9.84;100.00;99756.25;7395782;19;20874;-36
2023/03/30 07:37:08;;;;;;;11.87;7.00;;;;;;;9.87;100.00;99764.09;7398113;19;20411;-37
2023/03/30 07:39:38;;;;;;;22.30;7.33;;;;;;;9.84;100.00;99764.88;7394852;19;20759;-36
2023/03/30 07:42:08;;;;;;;15.57;7.20;;;;;;;9.85;100.00;99769.19;7395833;19;20407;-37
2023/03/30 07:44:40;;;;;;;14.13;8.43;;;;;;;9.88;100.00;99778.72;7395810;19;20462;-38
2023/03/30 07:47:10;;;;;;;12.80;7.60;;;;;;;9.92;100.00;99782.25;7396436;19;20411;-38
2023/03/30 07:49:39;;;;;;;16.03;8.07;;;;;;;9.95;100.00;99774.63;7396831;19;20470;-37
2023/03/30 07:52:09;;;;;;;10.80;6.97;;;;;;;9.93;100.00;99766.84;7396358;19;20408;-36
2023/03/30 07:54:39;;;;;;;14.00;6.83;;;;;;;9.94;100.00;99770.31;7394239;19;20478;-36
2023/03/30 07:57:09;;;;;;;13.90;6.90;;;;;;;10.04;100.00;99774.88;7395850;19;20436;-36
2023/03/30 07:59:41;;;;;;;11.70;7.47;;;;;;;10.01;100.00;99785.09;7396176;19;20892;-37
2023/03/30 08:02:12;;;;;;;11.87;6.70;;;;;;;10.05;100.00;99786.91;7395585;19;21277;-37
2023/03/30 08:04:42;;;;;;;14.43;6.90;;;;;;;10.09;100.00;99782.72;7393417;19;20427;-37
2023/03/30 08:07:13;;;;;;;17.57;8.37;;;;;;;10.17;100.00;99801.88;7397231;19;20405;-37
2023/03/30 08:09:44;;;;;;;13.83;6.73;;;;;;;10.24;100.00;99806.38;7394823;19;20435;-38
2023/03/30 08:12:14;;;;;;;12.40;5.60;;;;;;;10.32;100.00;99816.00;7396010;19;20426;-39
2023/03/30 08:14:46;;;;;;;10.00;6.20;;;;;;;10.43;100.00;99832.69;7391855;19;20435;-37
2023/03/30 08:17:18;;;;;;;12.17;5.87;;;;;;;10.53;100.00;99828.66;7396424;19;20411;-37
2023/03/30 08:19:47;;;;;;;8.03;5.50;;;;;;;10.62;100.00;99851.25;7394018;19;20443;-37
2023/03/30 08:22:18;;;;;;;14.93;7.27;;;;;;;10.72;100.00;99857.53;7395567;19;20417;-36
2023/03/30 08:24:48;;;;;;;13.57;6.00;;;;;;;10.80;100.00;99867.22;7394302;19;20439;-39
2023/03/30 08:27:17;;;;;;;10.10;5.20;;;;;;;10.88;100.00;99879.47;7394704;19;20428;-38
2023/03/30 08:29:53;;;;;;;12.03;6.23;;;;;;;10.89;100.00;99871.75;7393770;19;20455;-37
2023/03/30 08:32:22;;;;;;;10.90;5.17;;;;;;;10.88;100.00;99869.13;7395947;19;20402;-39
2023/03/30 08:34:53;;;;;;;10.33;5.43;;;;;;;10.96;100.00;99872.78;7389670;19;20810;-39
2023/03/30 08:37:23;;;;;;;11.77;5.30;;;;;;;11.05;100.00;99891.09;7394665;19;20947;-38
2023/03/30 08:39:53;;;;;;;18.33;5.80;;;;;;;11.11;100.00;99892.94;7393971;19;20806;-37
2023/03/30 08:42:46;;;;;;;12.70;5.57;;;;;;;11.20;100.00;99888.03;7395308;19;20399;-39
2023/03/30 08:45:18;;;;;;;10.10;4.90;;;;;;;11.19;100.00;99896.59;7392155;19;20458;-37
2023/03/30 08:47:50;;;;;;;11.27;5.80;;;;;;;11.27;100.00;99883.03;7396201;19;20461;-38
2023/03/30 08:50:32;;;;;;;9.13;4.83;;;;;;;11.34;100.00;99885.78;7393864;19;20485;-36
2023/03/30 08:53:02;;;;;;;8.67;5.03;;;;;;;11.31;100.00;99890.00;7393807;19;21053;-36
2023/03/30 08:55:34;;;;;;;12.80;5.00;;;;;;;11.24;100.00;99888.09;7392986;19;20839;-36
2023/03/30 08:58:08;;;;;;;10.30;5.30;;;;;;;11.17;100.00;99881.91;7393496;19;20447;-36
2023/03/30 09:00:44;;;;;;;15.90;4.07;;;;;;;11.31;100.00;99879.66;7394043;19;20459;-36
2023/03/30 09:03:20;;;;;;;14.97;5.07;;;;;;;11.44;100.00;99886.88;7394023;19;20817;-37
2023/03/30 09:05:53;;;;;;;11.10;4.10;;;;;;;11.47;100.00;99899.88;7393915;19;21026;-36
2023/03/30 09:08:27;;;;;;;9.97;4.77;;;;;;;11.47;100.00;99894.72;7389651;19;20443;-36
2023/03/30 09:11:00;;;;;;;11.83;4.43;;;;;;;11.66;100.00;99882.25;7394417;19;20407;-37
2023/03/30 09:13:33;;;;;;;6.57;3.53;;;;;;;11.87;100.00;99876.69;7392219;19;20545;-37
2023/03/30 09:16:15;;;;;;;10.27;4.70;;;;;;;12.00;100.00;99877.81;7393048;19;20410;-38
2023/03/30 09:18:45;;;;;;;17.60;3.50;;;;;;;12.15;100.00;99886.78;7393064;19;20455;-36
2023/03/30 09:21:15;;;;;;;10.70;3.83;;;;;;;12.25;100.00;99880.09;7393629;19;20415;-37
2023/03/30 09:23:45;;;;;;;6.37;3.93;;;;;;;12.30;100.00;99891.41;7392126;19;20440;-36
2023/03/30 09:26:20;;;;;;;4.80;3.13;;;;;;;12.52;100.00;99886.69;7392670;19;20411;-37
2023/03/30 09:28:56;;;;;;;8.03;3.80;;;;;;;12.63;100.00;99897.22;7389981;19;20439;-36
2023/03/30 09:31:32;;;;;;;8.03;3.67;;;;;;;12.62;100.00;99917.03;7397027;19;20411;-36
2023/03/30 09:34:04;;;;;;;10.57;4.10;;;;;;;12.56;100.00;99922.97;7399163;19;20438;-37
2023/03/30 09:36:41;;;;;;;7.07;3.70;;;;;;;12.65;100.00;99929.19;7400272;19;20399;-38
2023/03/30 09:39:12;;;;;;;5.43;2.80;;;;;;;12.54;100.00;99937.63;7397606;19;20447;-37
2023/03/30 09:41:50;;;;;;;5.80;2.87;;;;;;;12.52;100.00;99938.41;7400362;19;20924;-37
2023/03/30 09:44:22;;;;;;;6.87;3.30;;;;;;;12.44;100.00;99935.66;7397423;19;20803;-35
2023/03/30 09:46:59;;;;;;;13.20;4.77;;;;;;;12.49;100.00;99939.22;7397019;19;20415;-37
2023/03/30 09:49:32;;;;;;;9.33;3.90;;;;;;;12.41;100.00;99930.44;7397318;19;20487;-37
2023/03/30 09:52:05;;;;;;;5.63;3.03;;;;;;;12.20;100.00;99923.94;7399385;19;20403;-37
2023/03/30 09:54:39;;;;;;;17.87;4.53;;;;;;;11.94;100.00;99919.03;7397700;19;20509;-36
2023/03/30 09:57:25;;;;;;;12.57;4.33;;;;;;;11.87;100.00;99891.31;7398519;19;20418;-36
2023/03/30 09:59:55;;;;;;;12.03;6.73;;;;;;;11.96;100.00;99881.19;7395474;19;20822;-36
2023/03/30 10:02:30;;;;;;;20.00;7.10;;;;;;;11.95;100.00;99866.50;7399645;19;20805;-36
2023/03/30 10:05:02;;;;;;;22.77;10.30;;;;;;;12.01;100.00;99864.03;7395226;19;20451;-39
2023/03/30 10:07:37;;;;;;;19.80;7.27;;;;;;;12.07;100.00;99862.47;7398705;19;20760;-37
2023/03/30 10:10:17;;;;;;;9.90;5.03;;;;;;;12.24;100.00;99865.41;7397189;19;20474;-36
2023/03/30 10:12:47;;;;;;;12.90;4.87;;;;;;;12.45;100.00;99875.31;7400038;19;20788;-35
2023/03/30 10:15:18;;;;;;;8.23;4.63;;;;;;;12.53;100.00;99880.66;7397703;19;21073;-39
2023/03/30 10:17:55;;;;;;;10.80;4.60;;;;;;;12.62;100.00;99880.81;7399085;19;20442;-38
2023/03/30 10:20:28;;;;;;;10.00;4.10;;;;;;;12.63;100.00;99885.19;7398773;19;20829;-38
2023/03/30 10:23:02;;;;;;;10.63;5.00;;;;;;;12.71;100.00;99893.06;7397854;19;20459;-35
2023/03/30 10:25:34;;;;;;;13.40;3.77;;;;;;;12.73;100.00;99901.75;7393749;19;20482;-36
2023/03/30 10:28:06;;;;;;;10.00;4.17;;;;;;;12.79;100.00;99891.53;7397754;19;21032;-36
2023/03/30 10:30:35;;;;;;;10.63;3.87;;;;;;;12.94;100.00;99908.16;7398444;19;20451;-35
2023/03/30 10:33:11;;;;;;;23.43;8.80;;;;;;;13.24;100.00;99904.38;7397650;19;20387;-36
2023/03/30 10:35:40;;;;;;;13.80;3.57;;;;;;;13.46;100.00;99916.03;7396707;19;20451;-37
2023/03/30 10:38:12;;;;;;;7.67;2.63;;;;;;;13.59;100.00;99927.44;7397825;19;20995;-36
2023/03/30 10:40:43;;;;;;;17.47;4.67;;;;;;;13.59;100.00;99936.94;7397037;19;20479;-36
2023/03/30 10:43:16;;;;;;;15.87;4.63;;;;;;;13.82;100.00;99942.50;7397039;19;20418;-39
2023/03/30 10:45:50;;;;;;;15.33;3.03;;;;;;;13.73;100.00;99942.34;7399112;19;20454;-39
2023/03/30 10:48:40;;;;;;;8.60;2.60;;;;;;;13.67;100.00;99961.28;7399314;19;20994;-42
2023/03/30 10:51:16;;;;;;;11.43;3.37;;;;;;;13.72;100.00;99959.63;7399730;19;20853;-42
2023/03/30 10:53:52;;;;;;;6.00;2.37;;;;;;;13.55;100.00;99966.25;7398011;19;20462;-41
2023/03/30 10:56:29;;;;;;;4.50;2.00;;;;;;;13.45;100.00;99954.81;7397228;19;20927;-39
2023/03/30 10:59:14;;;;;;;7.47;1.87;;;;;;;13.33;100.00;99964.13;7395758;19;20443;-40
2023/03/30 11:01:51;;;;;;;9.63;2.37;;;;;;;13.28;100.00;99950.22;7398330;19;20423;-40
2023/03/30 11:04:26;;;;;;;3.87;1.67;;;;;;;13.21;100.00;99964.78;7395158;19;20431;-40
2023/03/30 11:06:58;;;;;;;4.97;1.80;;;;;;;13.18;100.00;99961.25;7398783;19;20781;-39
2023/03/30 11:09:31;;;;;;;6.40;2.17;;;;;;;13.21;100.00;99961.31;7395427;19;20439;-44
2023/03/30 11:12:03;;;;;;;11.93;3.73;;;;;;;13.40;100.00;99952.16;7399298;19;20410;-46
2023/03/30 11:14:41;;;;;;;3.10;1.60;;;;;;;13.46;100.00;99961.78;7397315;19;20451;-41
2023/03/30 11:17:14;;;;;;;6.40;1.90;;;;;;;13.57;100.00;99959.34;7396918;19;20435;-39
2023/03/30 11:19:49;;;;;;;3.37;1.40;;;;;;;13.74;100.00;99959.66;7396358;19;20438;-45
2023/03/30 11:22:28;;;;;;;7.80;2.07;;;;;;;13.76;100.00;99986.47;7398919;19;20939;-42
2023/03/30 11:25:02;;;;;;;4.40;1.90;;;;;;;13.95;100.00;99971.22;7393446;19;20526;-42
2023/03/30 11:27:36;;;;;;;4.10;1.20;;;;;;;14.09;100.00;99974.03;7396941;19;20404;-47
2023/03/30 11:30:13;;;;;;;2.27;0.90;;;;;;;14.00;100.00;100000.69;7394845;19;20447;-44
2023/03/30 11:32:46;;;;;;;7.97;1.67;;;;;;;13.79;100.00;100007.25;7397601;19;20746;-44
2023/03/30 11:35:22;;;;;;;2.67;0.63;;;;;;;13.81;100.00;99992.59;7393541;19;20446;-49
2023/03/30 11:37:56;;;;;;;4.70;1.50;;;;;;;13.75;100.00;99995.09;7395467;19;20427;-36
2023/03/30 11:40:28;;;;;;;5.67;1.50;;;;;;;13.77;100.00;100021.91;7395316;19;20811;-38
2023/03/30 11:42:58;;;;;;;5.30;1.40;;;;;;;13.76;100.00;100009.81;7397106;19;20992;-38